createdAt,value
2019-01-23T16:13:10.512Z,98999.78
2019-01-23T16:15:38.725Z,99004.22
2019-01-23T16:18:06.886Z,99009.06
2019-01-23T16:20:35.202Z,99010.95
2019-01-23T16:23:03.300Z,99007.17
2019-01-23T16:25:31.435Z,99022.95
2019-01-23T16:27:59.800Z,99018.56
2019-01-23T16:30:48.380Z,99026.44
2019-01-23T16:33:38.375Z,99028.29
2019-01-23T16:36:11.712Z,99029.68
2019-01-23T16:38:39.756Z,99031.78
2019-01-23T16:41:07.989Z,99037.11
2019-01-23T16:43:36.145Z,99039.70
2019-01-23T16:46:04.310Z,99047.98
2019-01-23T16:48:41.439Z,99054.52
2019-01-23T16:51:09.686Z,98894.59
2019-01-23T16:53:37.797Z,98644.33
2019-01-23T16:56:06.160Z,99060.24
2019-01-23T16:58:34.339Z,99061.09
2019-01-23T17:01:05.063Z,99063.70
2019-01-23T17:03:33.551Z,99064.58
2019-01-23T17:06:02.374Z,99074.19
2019-01-23T17:08:30.459Z,99076.76
2019-01-23T17:10:58.780Z,99079.32
2019-01-23T17:13:29.019Z,99082.89
2019-01-23T17:15:57.258Z,99093.37
2019-01-23T17:18:25.623Z,99092.05
2019-01-23T17:20:54.018Z,99098.59
2019-01-23T17:23:22.117Z,99102.52
2019-01-23T17:25:57.951Z,99098.59
2019-01-23T17:28:26.406Z,99099.02
2019-01-23T17:30:54.872Z,99103.81
2019-01-23T17:33:33.516Z,99105.09
2019-01-23T17:36:04.733Z,99109.45
2019-01-23T17:38:34.175Z,99112.95
2019-01-23T17:41:03.105Z,99115.58
2019-01-23T17:43:32.375Z,99115.59
2019-01-23T17:46:01.031Z,99117.30
2019-01-23T17:48:29.925Z,99124.33
2019-01-23T17:50:58.348Z,99119.50
2019-01-23T17:53:27.640Z,99127.30
2019-01-23T17:55:56.414Z,99124.27
2019-01-23T17:58:24.991Z,99129.05
2019-01-23T18:01:12.700Z,99134.30
2019-01-23T18:03:43.985Z,99129.09
2019-01-23T18:06:12.652Z,99129.58
2019-01-23T18:08:41.223Z,99134.34
2019-01-23T18:11:10.329Z,99134.34
2019-01-23T18:13:38.636Z,99137.33
2019-01-23T18:16:10.376Z,99124.72
2019-01-23T18:18:39.021Z,99134.75
2019-01-23T18:21:07.735Z,99133.41
2019-01-23T18:23:36.827Z,99140.84
2019-01-23T18:26:05.389Z,99149.56
2019-01-23T18:28:34.152Z,99156.52
2019-01-23T18:31:11.746Z,99159.94
2019-01-23T18:34:12.060Z,99162.50
2019-01-23T18:37:18.333Z,99166.98
2019-01-23T18:40:34.454Z,99168.70
2019-01-23T18:43:39.788Z,99175.66
2019-01-23T18:46:55.456Z,99177.86
2019-01-23T18:49:43.368Z,98923.43
2019-01-23T18:52:13.988Z,99185.71
2019-01-23T18:54:42.524Z,99191.31
2019-01-23T18:57:14.469Z,99198.31
2019-01-23T18:59:43.767Z,99197.00
2019-01-23T19:02:12.277Z,99202.31
2019-01-23T19:04:40.851Z,99204.00
2019-01-23T19:07:09.456Z,99210.55
2019-01-23T19:09:37.676Z,99212.28
2019-01-23T19:12:06.899Z,99214.47
2019-01-23T19:14:35.601Z,99218.40
2019-01-23T19:17:04.393Z,99222.71
2019-01-23T19:19:33.210Z,99223.20
2019-01-23T19:22:01.843Z,99225.38
2019-01-23T19:24:31.538Z,99229.72
2019-01-23T19:27:02.007Z,99226.70
2019-01-23T19:29:30.563Z,99228.44
2019-01-23T19:31:59.309Z,99224.94
2019-01-23T19:34:29.416Z,99225.77
2019-01-23T19:36:58.444Z,99227.11
2019-01-23T19:39:27.771Z,99231.03
2019-01-23T19:41:56.429Z,99231.08
2019-01-23T19:44:25.011Z,99233.25
2019-01-23T19:46:54.039Z,99243.23
2019-01-23T19:49:24.266Z,99245.05
2019-01-23T19:51:53.158Z,99236.67
2019-01-23T19:54:22.054Z,99240.66
2019-01-23T19:56:50.679Z,99244.96
2019-01-23T19:59:19.930Z,99251.98
2019-01-23T20:01:48.276Z,99256.73
2019-01-23T20:04:16.637Z,99250.22
2019-01-23T20:07:07.463Z,99253.23
2019-01-23T20:09:36.378Z,99261.91
2019-01-23T20:12:05.257Z,99268.55
2019-01-23T20:14:33.927Z,99269.81
2019-01-23T20:19:36.695Z,99272.02
2019-01-23T20:22:05.284Z,99273.74
2019-01-23T20:24:33.841Z,99277.22
2019-01-23T20:27:06.101Z,99276.34
2019-01-23T20:29:34.591Z,99276.03
2019-01-23T20:32:02.902Z,99281.22
2019-01-23T20:34:31.098Z,99289.86
2019-01-23T20:36:59.693Z,99295.11
2019-01-23T20:39:28.057Z,99295.62
2019-01-23T20:44:43.568Z,99304.28
2019-01-23T20:47:11.980Z,99300.34
2019-01-23T20:49:40.708Z,99307.29
2019-01-23T20:52:08.943Z,99306.40
2019-01-23T20:54:37.030Z,99313.03
2019-01-23T20:57:05.070Z,99308.20
2019-01-23T20:59:33.277Z,99302.84
2019-01-23T21:02:01.844Z,99305.13
2019-01-23T21:04:30.826Z,99306.50
2019-01-23T21:06:59.283Z,99304.73
2019-01-23T21:09:27.452Z,99303.79
2019-01-23T21:11:56.308Z,99308.15
2019-01-23T21:14:24.560Z,99307.68
2019-01-23T21:16:53.806Z,99314.29
2019-01-23T21:19:22.278Z,99318.16
2019-01-23T21:21:50.341Z,99320.72
2019-01-23T21:24:18.475Z,99318.18
2019-01-23T21:26:46.603Z,99316.81
2019-01-23T21:29:14.743Z,99324.73
2019-01-23T21:31:43.342Z,99322.98
2019-01-23T21:34:11.614Z,99322.45
2019-01-23T21:36:39.637Z,99329.89
2019-01-23T21:39:09.662Z,99327.25
2019-01-23T21:41:37.677Z,99330.26
2019-01-23T21:44:05.898Z,99328.47
2019-01-23T21:46:34.066Z,99332.38
2019-01-23T21:49:02.140Z,99331.45
2019-01-23T21:51:31.553Z,99337.48
2019-01-23T21:53:59.716Z,99343.96
2019-01-23T21:56:27.698Z,99339.17
2019-01-23T21:58:55.839Z,99349.58
2019-01-23T22:01:23.884Z,99356.51
2019-01-23T22:03:52.006Z,99354.27
2019-01-23T22:06:20.103Z,99357.67
2019-01-23T22:08:48.278Z,99365.89
2019-01-23T22:11:16.342Z,99368.48
2019-01-23T22:13:44.427Z,99368.38
2019-01-23T22:16:12.454Z,99377.53
2019-01-23T22:18:40.638Z,99377.20
2019-01-23T22:21:08.733Z,99381.52
2019-01-23T22:23:36.776Z,99383.96
2019-01-23T22:26:04.854Z,99388.27
2019-01-23T22:28:33.097Z,99387.42
2019-01-23T22:31:02.345Z,99389.63
2019-01-23T22:33:30.415Z,99390.03
2019-01-23T22:35:58.466Z,99388.33
2019-01-23T22:38:26.619Z,99390.94
2019-01-23T22:40:54.705Z,99392.17
2019-01-23T22:43:22.802Z,99390.75
2019-01-23T22:45:50.931Z,99391.12
2019-01-23T22:48:18.980Z,99394.97
2019-01-23T22:50:47.028Z,99399.61
2019-01-23T22:53:35.694Z,99401.38
2019-01-23T22:56:03.764Z,99403.31
2019-01-23T22:58:31.854Z,99399.65
2019-01-23T23:01:27.186Z,99404.20
2019-01-23T23:03:55.220Z,99409.77
2019-01-23T23:06:23.294Z,99412.61
2019-01-23T23:08:51.382Z,99423.91
2019-01-23T23:11:19.362Z,99419.22
2019-01-23T23:13:48.250Z,99429.74
2019-01-23T23:16:16.258Z,99426.11
2019-01-23T23:18:44.269Z,99426.62
2019-01-23T23:21:12.362Z,99423.66
2019-01-23T23:23:40.455Z,99430.88
2019-01-23T23:26:08.592Z,99435.66
2019-01-23T23:28:36.671Z,99438.97
2019-01-23T23:31:04.778Z,99436.79
2019-01-23T23:33:32.783Z,99446.95
2019-01-23T23:36:00.911Z,99446.09
2019-01-23T23:38:28.946Z,99450.73
2019-01-23T23:40:56.991Z,99456.36
2019-01-23T23:43:25.043Z,99461.02
2019-01-23T23:45:53.011Z,99461.34
2019-01-23T23:48:21.103Z,99457.34
2019-01-23T23:50:49.120Z,99463.33
2019-01-23T23:53:17.154Z,99467.23
2019-01-23T23:55:45.182Z,99474.89
2019-01-23T23:58:13.240Z,99468.05
